sensor_id;sensor_type;location;lat;lon;timestamp;P1;durP1;ratioP1;P2;durP2;ratioP2
36651;SDS011;53334;51.976;20.144;2023-04-01T00:01:53;4.03;;;2.85;;
36651;SDS011;53334;51.976;20.144;2023-04-01T00:04:26;5.25;;;3.20;;
36651;SDS011;53334;51.976;20.144;2023-04-01T00:07:00;3.95;;;2.65;;
36651;SDS011;53334;51.976;20.144;2023-04-01T00:09:33;3.15;;;2.47;;
36651;SDS011;53334;51.976;20.144;2023-04-01T00:12:07;3.83;;;2.60;;
36651;SDS011;53334;51.976;20.144;2023-04-01T00:17:16;4.18;;;2.28;;
36651;SDS011;53334;51.976;20.144;2023-04-01T00:19:49;6.47;;;3.40;;
36651;SDS011;53334;51.976;20.144;2023-04-01T00:22:22;6.60;;;2.70;;
36651;SDS011;53334;51.976;20.144;2023-04-01T00:24:56;3.33;;;2.33;;
36651;SDS011;53334;51.976;20.144;2023-04-01T00:27:29;4.30;;;2.78;;
36651;SDS011;53334;51.976;20.144;2023-04-01T00:30:05;2.90;;;2.10;;
36651;SDS011;53334;51.976;20.144;2023-04-01T00:32:39;3.08;;;2.25;;
36651;SDS011;53334;51.976;20.144;2023-04-01T00:35:13;3.05;;;2.47;;
36651;SDS011;53334;51.976;20.144;2023-04-01T00:37:46;3.80;;;2.40;;
36651;SDS011;53334;51.976;20.144;2023-04-01T00:40:24;3.67;;;2.20;;
36651;SDS011;53334;51.976;20.144;2023-04-01T00:43:00;6.18;;;2.92;;
36651;SDS011;53334;51.976;20.144;2023-04-01T00:45:35;4.22;;;2.65;;
36651;SDS011;53334;51.976;20.144;2023-04-01T00:48:12;3.40;;;2.60;;
36651;SDS011;53334;51.976;20.144;2023-04-01T00:50:49;6.60;;;2.60;;
36651;SDS011;53334;51.976;20.144;2023-04-01T00:53:26;3.92;;;2.50;;
36651;SDS011;53334;51.976;20.144;2023-04-01T00:56:03;2.97;;;2.58;;
36651;SDS011;53334;51.976;20.144;2023-04-01T00:58:41;4.80;;;2.65;;
36651;SDS011;53334;51.976;20.144;2023-04-01T01:01:17;3.40;;;2.20;;
36651;SDS011;53334;51.976;20.144;2023-04-01T01:03:53;6.72;;;2.63;;
36651;SDS011;53334;51.976;20.144;2023-04-01T01:06:30;4.38;;;2.80;;
36651;SDS011;53334;51.976;20.144;2023-04-01T01:09:22;4.72;;;2.85;;
36651;SDS011;53334;51.976;20.144;2023-04-01T01:12:05;6.13;;;2.22;;
36651;SDS011;53334;51.976;20.144;2023-04-01T01:14:47;3.70;;;2.42;;
36651;SDS011;53334;51.976;20.144;2023-04-01T01:17:30;2.53;;;2.17;;
36651;SDS011;53334;51.976;20.144;2023-04-01T01:20:19;2.97;;;1.90;;
36651;SDS011;53334;51.976;20.144;2023-04-01T01:23:50;4.88;;;2.90;;
36651;SDS011;53334;51.976;20.144;2023-04-01T01:26:48;4.35;;;2.75;;
36651;SDS011;53334;51.976;20.144;2023-04-01T01:29:32;3.28;;;2.17;;
36651;SDS011;53334;51.976;20.144;2023-04-01T01:32:27;4.47;;;2.55;;
36651;SDS011;53334;51.976;20.144;2023-04-01T01:35:18;4.43;;;2.03;;
36651;SDS011;53334;51.976;20.144;2023-04-01T01:37:56;3.45;;;2.13;;
36651;SDS011;53334;51.976;20.144;2023-04-01T01:40:32;8.05;;;2.05;;
36651;SDS011;53334;51.976;20.144;2023-04-01T01:43:08;3.47;;;1.75;;
36651;SDS011;53334;51.976;20.144;2023-04-01T01:45:46;4.80;;;2.40;;
36651;SDS011;53334;51.976;20.144;2023-04-01T01:48:22;4.00;;;2.08;;
36651;SDS011;53334;51.976;20.144;2023-04-01T01:50:59;3.30;;;2.22;;
36651;SDS011;53334;51.976;20.144;2023-04-01T01:53:33;2.92;;;2.17;;
36651;SDS011;53334;51.976;20.144;2023-04-01T01:56:07;4.35;;;2.13;;
36651;SDS011;53334;51.976;20.144;2023-04-01T01:58:45;6.43;;;1.90;;
36651;SDS011;53334;51.976;20.144;2023-04-01T02:01:24;4.22;;;2.15;;
36651;SDS011;53334;51.976;20.144;2023-04-01T02:04:05;2.65;;;2.05;;
36651;SDS011;53334;51.976;20.144;2023-04-01T02:06:41;5.07;;;1.98;;
36651;SDS011;53334;51.976;20.144;2023-04-01T02:09:19;3.03;;;1.88;;
36651;SDS011;53334;51.976;20.144;2023-04-01T02:14:29;2.88;;;1.77;;
36651;SDS011;53334;51.976;20.144;2023-04-01T02:17:10;2.83;;;2.25;;
36651;SDS011;53334;51.976;20.144;2023-04-01T02:19:48;2.97;;;2.20;;
36651;SDS011;53334;51.976;20.144;2023-04-01T02:22:27;3.38;;;2.10;;
36651;SDS011;53334;51.976;20.144;2023-04-01T02:25:04;4.85;;;1.80;;
36651;SDS011;53334;51.976;20.144;2023-04-01T02:27:40;1.50;;;1.40;;
36651;SDS011;53334;51.976;20.144;2023-04-01T02:30:17;2.03;;;1.75;;
36651;SDS011;53334;51.976;20.144;2023-04-01T02:35:24;1.88;;;1.58;;
36651;SDS011;53334;51.976;20.144;2023-04-01T02:37:59;1.70;;;1.50;;
36651;SDS011;53334;51.976;20.144;2023-04-01T02:40:44;2.38;;;1.85;;
36651;SDS011;53334;51.976;20.144;2023-04-01T02:43:19;2.33;;;1.77;;
36651;SDS011;53334;51.976;20.144;2023-04-01T02:45:52;2.72;;;2.08;;
36651;SDS011;53334;51.976;20.144;2023-04-01T02:48:26;4.43;;;1.95;;
36651;SDS011;53334;51.976;20.144;2023-04-01T02:51:01;1.73;;;1.60;;
36651;SDS011;53334;51.976;20.144;2023-04-01T02:53:36;3.28;;;2.13;;
36651;SDS011;53334;51.976;20.144;2023-04-01T02:56:09;2.95;;;2.00;;
36651;SDS011;53334;51.976;20.144;2023-04-01T02:58:43;2.72;;;2.10;;
36651;SDS011;53334;51.976;20.144;2023-04-01T03:01:16;2.33;;;1.92;;
36651;SDS011;53334;51.976;20.144;2023-04-01T03:03:50;5.82;;;1.92;;
36651;SDS011;53334;51.976;20.144;2023-04-01T03:06:23;2.53;;;1.75;;
36651;SDS011;53334;51.976;20.144;2023-04-01T03:08:58;1.65;;;1.52;;
36651;SDS011;53334;51.976;20.144;2023-04-01T03:11:31;2.83;;;1.85;;
36651;SDS011;53334;51.976;20.144;2023-04-01T03:14:05;3.40;;;1.63;;
36651;SDS011;53334;51.976;20.144;2023-04-01T03:16:38;4.70;;;1.80;;
36651;SDS011;53334;51.976;20.144;2023-04-01T03:19:12;1.77;;;1.60;;
36651;SDS011;53334;51.976;20.144;2023-04-01T03:21:45;3.58;;;1.70;;
36651;SDS011;53334;51.976;20.144;2023-04-01T03:24:20;2.35;;;1.70;;
36651;SDS011;53334;51.976;20.144;2023-04-01T03:26:53;1.92;;;1.60;;
36651;SDS011;53334;51.976;20.144;2023-04-01T03:29:27;3.97;;;1.67;;
36651;SDS011;53334;51.976;20.144;2023-04-01T03:32:00;2.95;;;1.73;;
36651;SDS011;53334;51.976;20.144;2023-04-01T03:34:33;3.20;;;2.08;;
36651;SDS011;53334;51.976;20.144;2023-04-01T03:37:07;2.75;;;1.70;;
36651;SDS011;53334;51.976;20.144;2023-04-01T03:39:42;2.00;;;1.80;;
36651;SDS011;53334;51.976;20.144;2023-04-01T03:42:15;2.63;;;1.75;;
36651;SDS011;53334;51.976;20.144;2023-04-01T03:44:48;3.33;;;1.83;;
36651;SDS011;53334;51.976;20.144;2023-04-01T03:47:22;3.20;;;1.67;;
36651;SDS011;53334;51.976;20.144;2023-04-01T03:49:55;1.70;;;1.60;;
36651;SDS011;53334;51.976;20.144;2023-04-01T03:52:29;2.08;;;1.88;;
36651;SDS011;53334;51.976;20.144;2023-04-01T03:55:05;3.67;;;1.60;;
36651;SDS011;53334;51.976;20.144;2023-04-01T03:57:39;2.00;;;1.80;;
36651;SDS011;53334;51.976;20.144;2023-04-01T04:00:20;1.95;;;1.40;;
36651;SDS011;53334;51.976;20.144;2023-04-01T04:02:58;3.85;;;2.03;;
36651;SDS011;53334;51.976;20.144;2023-04-01T04:05:36;1.60;;;1.50;;
36651;SDS011;53334;51.976;20.144;2023-04-01T04:08:09;1.88;;;1.60;;
36651;SDS011;53334;51.976;20.144;2023-04-01T04:10:44;1.75;;;1.42;;
36651;SDS011;53334;51.976;20.144;2023-04-01T04:13:18;3.03;;;1.90;;
36651;SDS011;53334;51.976;20.144;2023-04-01T04:15:58;2.63;;;1.88;;
36651;SDS011;53334;51.976;20.144;2023-04-01T04:18:32;1.80;;;1.70;;
36651;SDS011;53334;51.976;20.144;2023-04-01T04:21:06;2.85;;;2.10;;
36651;SDS011;53334;51.976;20.144;2023-04-01T04:23:39;3.15;;;1.65;;
36651;SDS011;53334;51.976;20.144;2023-04-01T04:26:14;2.58;;;1.85;;
36651;SDS011;53334;51.976;20.144;2023-04-01T04:28:54;2.08;;;1.50;;
36651;SDS011;53334;51.976;20.144;2023-04-01T04:31:29;2.47;;;1.52;;
36651;SDS011;53334;51.976;20.144;2023-04-01T04:34:04;1.80;;;1.63;;
36651;SDS011;53334;51.976;20.144;2023-04-01T04:36:40;1.50;;;1.40;;
36651;SDS011;53334;51.976;20.144;2023-04-01T04:39:13;2.72;;;1.75;;
36651;SDS011;53334;51.976;20.144;2023-04-01T04:41:49;1.50;;;1.40;;
36651;SDS011;53334;51.976;20.144;2023-04-01T04:44:23;1.65;;;1.55;;
36651;SDS011;53334;51.976;20.144;2023-04-01T04:46:56;5.82;;;1.50;;
36651;SDS011;53334;51.976;20.144;2023-04-01T04:52:08;2.10;;;1.88;;
36651;SDS011;53334;51.976;20.144;2023-04-01T04:54:42;3.10;;;1.77;;
36651;SDS011;53334;51.976;20.144;2023-04-01T04:57:17;2.67;;;1.67;;
36651;SDS011;53334;51.976;20.144;2023-04-01T04:59:57;4.22;;;1.55;;
36651;SDS011;53334;51.976;20.144;2023-04-01T05:02:50;2.55;;;1.92;;
36651;SDS011;53334;51.976;20.144;2023-04-01T05:05:24;5.15;;;1.70;;
36651;SDS011;53334;51.976;20.144;2023-04-01T05:07:58;2.55;;;1.50;;
36651;SDS011;53334;51.976;20.144;2023-04-01T05:10:31;2.55;;;1.70;;
36651;SDS011;53334;51.976;20.144;2023-04-01T05:13:06;7.53;;;1.80;;
36651;SDS011;53334;51.976;20.144;2023-04-01T05:15:39;2.65;;;1.85;;
36651;SDS011;53334;51.976;20.144;2023-04-01T05:18:13;1.77;;;1.60;;
36651;SDS011;53334;51.976;20.144;2023-04-01T05:20:47;1.70;;;1.52;;
36651;SDS011;53334;51.976;20.144;2023-04-01T05:23:22;2.72;;;1.73;;
36651;SDS011;53334;51.976;20.144;2023-04-01T05:25:55;4.28;;;1.48;;
36651;SDS011;53334;51.976;20.144;2023-04-01T05:28:30;3.15;;;1.95;;
36651;SDS011;53334;51.976;20.144;2023-04-01T05:31:03;1.92;;;1.60;;
36651;SDS011;53334;51.976;20.144;2023-04-01T05:33:41;2.08;;;1.58;;
36651;SDS011;53334;51.976;20.144;2023-04-01T05:36:15;3.45;;;2.03;;
36651;SDS011;53334;51.976;20.144;2023-04-01T05:38:49;1.67;;;1.58;;
36651;SDS011;53334;51.976;20.144;2023-04-01T05:41:23;3.20;;;2.05;;
36651;SDS011;53334;51.976;20.144;2023-04-01T05:43:58;2.08;;;1.75;;
36651;SDS011;53334;51.976;20.144;2023-04-01T05:46:44;2.15;;;1.95;;
36651;SDS011;53334;51.976;20.144;2023-04-01T05:49:24;1.92;;;1.80;;
36651;SDS011;53334;51.976;20.144;2023-04-01T05:51:59;2.45;;;1.70;;
36651;SDS011;53334;51.976;20.144;2023-04-01T05:54:34;5.15;;;2.05;;
36651;SDS011;53334;51.976;20.144;2023-04-01T05:57:07;3.03;;;1.80;;
36651;SDS011;53334;51.976;20.144;2023-04-01T05:59:42;2.67;;;2.10;;
36651;SDS011;53334;51.976;20.144;2023-04-01T06:02:16;2.92;;;1.80;;
36651;SDS011;53334;51.976;20.144;2023-04-01T06:04:52;1.58;;;1.48;;
36651;SDS011;53334;51.976;20.144;2023-04-01T06:07:31;1.90;;;1.58;;
36651;SDS011;53334;51.976;20.144;2023-04-01T06:10:09;2.08;;;1.80;;
36651;SDS011;53334;51.976;20.144;2023-04-01T06:12:47;2.10;;;1.75;;
36651;SDS011;53334;51.976;20.144;2023-04-01T06:15:28;2.17;;;1.88;;
36651;SDS011;53334;51.976;20.144;2023-04-01T06:18:19;2.65;;;2.03;;
36651;SDS011;53334;51.976;20.144;2023-04-01T06:21:26;2.67;;;1.73;;
36651;SDS011;53334;51.976;20.144;2023-04-01T06:24:21;1.83;;;1.70;;
36651;SDS011;53334;51.976;20.144;2023-04-01T06:27:16;2.92;;;1.55;;
36651;SDS011;53334;51.976;20.144;2023-04-01T06:29:58;2.08;;;1.63;;
36651;SDS011;53334;51.976;20.144;2023-04-01T06:32:51;3.27;;;2.13;;
36651;SDS011;53334;51.976;20.144;2023-04-01T06:35:44;1.98;;;1.83;;
36651;SDS011;53334;51.976;20.144;2023-04-01T06:38:32;4.15;;;2.13;;
36651;SDS011;53334;51.976;20.144;2023-04-01T06:41:27;3.78;;;2.40;;
36651;SDS011;53334;51.976;20.144;2023-04-01T06:44:20;3.22;;;2.33;;
36651;SDS011;53334;51.976;20.144;2023-04-01T06:47:34;4.15;;;2.80;;
36651;SDS011;53334;51.976;20.144;2023-04-01T06:50:39;5.60;;;3.42;;
36651;SDS011;53334;51.976;20.144;2023-04-01T06:53:36;9.55;;;3.35;;
36651;SDS011;53334;51.976;20.144;2023-04-01T06:56:17;4.80;;;3.50;;
36651;SDS011;53334;51.976;20.144;2023-04-01T06:59:17;4.68;;;3.22;;
36651;SDS011;53334;51.976;20.144;2023-04-01T07:01:54;9.27;;;3.38;;
36651;SDS011;53334;51.976;20.144;2023-04-01T07:04:30;4.07;;;2.50;;
36651;SDS011;53334;51.976;20.144;2023-04-01T07:07:10;9.60;;;3.28;;
36651;SDS011;53334;51.976;20.144;2023-04-01T07:09:58;3.70;;;2.38;;
36651;SDS011;53334;51.976;20.144;2023-04-01T07:12:37;5.00;;;3.17;;
36651;SDS011;53334;51.976;20.144;2023-04-01T07:15:54;5.75;;;2.38;;
36651;SDS011;53334;51.976;20.144;2023-04-01T07:18:41;7.03;;;2.40;;
36651;SDS011;53334;51.976;20.144;2023-04-01T07:21:22;6.43;;;3.28;;
36651;SDS011;53334;51.976;20.144;2023-04-01T07:24:03;4.38;;;2.83;;
36651;SDS011;53334;51.976;20.144;2023-04-01T07:26:43;3.67;;;2.53;;
36651;SDS011;53334;51.976;20.144;2023-04-01T07:29:22;11.35;;;2.67;;
36651;SDS011;53334;51.976;20.144;2023-04-01T07:32:09;10.05;;;2.30;;
36651;SDS011;53334;51.976;20.144;2023-04-01T07:34:53;12.30;;;2.80;;
36651;SDS011;53334;51.976;20.144;2023-04-01T07:37:36;7.73;;;3.07;;
36651;SDS011;53334;51.976;20.144;2023-04-01T07:40:19;3.33;;;2.83;;
36651;SDS011;53334;51.976;20.144;2023-04-01T07:43:05;9.13;;;2.83;;
36651;SDS011;53334;51.976;20.144;2023-04-01T07:45:55;7.20;;;2.80;;
36651;SDS011;53334;51.976;20.144;2023-04-01T07:48:35;3.35;;;2.88;;
36651;SDS011;53334;51.976;20.144;2023-04-01T07:51:16;6.00;;;3.03;;
36651;SDS011;53334;51.976;20.144;2023-04-01T07:53:57;3.70;;;2.55;;
36651;SDS011;53334;51.976;20.144;2023-04-01T07:56:40;7.13;;;3.13;;
36651;SDS011;53334;51.976;20.144;2023-04-01T07:59:24;8.35;;;3.95;;
36651;SDS011;53334;51.976;20.144;2023-04-01T08:02:06;8.27;;;3.53;;
36651;SDS011;53334;51.976;20.144;2023-04-01T08:04:51;7.97;;;2.92;;
36651;SDS011;53334;51.976;20.144;2023-04-01T08:07:35;13.63;;;3.67;;
36651;SDS011;53334;51.976;20.144;2023-04-01T08:10:36;7.88;;;4.07;;
36651;SDS011;53334;51.976;20.144;2023-04-01T08:13:38;8.50;;;3.58;;
36651;SDS011;53334;51.976;20.144;2023-04-01T08:16:37;8.93;;;4.47;;
36651;SDS011;53334;51.976;20.144;2023-04-01T08:19:27;8.60;;;4.50;;
36651;SDS011;53334;51.976;20.144;2023-04-01T08:22:07;5.57;;;4.32;;
36651;SDS011;53334;51.976;20.144;2023-04-01T08:24:44;6.90;;;4.10;;
36651;SDS011;53334;51.976;20.144;2023-04-01T08:27:28;8.93;;;4.23;;
36651;SDS011;53334;51.976;20.144;2023-04-01T08:30:15;8.05;;;4.70;;
36651;SDS011;53334;51.976;20.144;2023-04-01T08:32:51;10.85;;;4.40;;
36651;SDS011;53334;51.976;20.144;2023-04-01T08:35:31;10.20;;;4.35;;
36651;SDS011;53334;51.976;20.144;2023-04-01T08:38:13;12.10;;;4.38;;
36651;SDS011;53334;51.976;20.144;2023-04-01T08:51:09;7.50;;;6.57;;
36651;SDS011;53334;51.976;20.144;2023-04-01T08:54:14;7.60;;;6.80;;
36651;SDS011;53334;51.976;20.144;2023-04-01T08:57:10;15.80;;;7.22;;
36651;SDS011;53334;51.976;20.144;2023-04-01T09:00:14;15.50;;;6.80;;
36651;SDS011;53334;51.976;20.144;2023-04-01T09:03:26;8.13;;;6.93;;
36651;SDS011;53334;51.976;20.144;2023-04-01T09:06:25;14.80;;;7.40;;
36651;SDS011;53334;51.976;20.144;2023-04-01T09:12:27;9.85;;;6.28;;
36651;SDS011;53334;51.976;20.144;2023-04-01T09:15:27;15.25;;;6.32;;
36651;SDS011;53334;51.976;20.144;2023-04-01T09:18:30;8.00;;;6.10;;
36651;SDS011;53334;51.976;20.144;2023-04-01T09:24:52;14.80;;;5.90;;
36651;SDS011;53334;51.976;20.144;2023-04-01T09:27:41;17.45;;;5.72;;
36651;SDS011;53334;51.976;20.144;2023-04-01T09:30:28;11.55;;;5.70;;
36651;SDS011;53334;51.976;20.144;2023-04-01T09:36:56;12.95;;;5.18;;
36651;SDS011;53334;51.976;20.144;2023-04-01T09:39:59;13.60;;;5.43;;
36651;SDS011;53334;51.976;20.144;2023-04-01T09:43:04;15.00;;;5.40;;
36651;SDS011;53334;51.976;20.144;2023-04-01T09:45:53;9.55;;;5.30;;
36651;SDS011;53334;51.976;20.144;2023-04-01T09:52:04;10.98;;;5.25;;
36651;SDS011;53334;51.976;20.144;2023-04-01T09:54:58;6.45;;;4.85;;
36651;SDS011;53334;51.976;20.144;2023-04-01T09:58:02;5.93;;;4.40;;
36651;SDS011;53334;51.976;20.144;2023-04-01T10:01:39;16.38;;;5.60;;
36651;SDS011;53334;51.976;20.144;2023-04-01T10:07:44;14.77;;;5.13;;
36651;SDS011;53334;51.976;20.144;2023-04-01T10:10:47;9.88;;;4.85;;
36651;SDS011;53334;51.976;20.144;2023-04-01T10:16:56;8.55;;;4.50;;
36651;SDS011;53334;51.976;20.144;2023-04-01T10:23:17;11.43;;;5.07;;
36651;SDS011;53334;51.976;20.144;2023-04-01T10:29:48;9.70;;;5.10;;
36651;SDS011;53334;51.976;20.144;2023-04-01T10:36:16;12.73;;;4.50;;
36651;SDS011;53334;51.976;20.144;2023-04-01T10:42:43;11.50;;;4.07;;
36651;SDS011;53334;51.976;20.144;2023-04-01T10:46:01;9.18;;;3.72;;
36651;SDS011;53334;51.976;20.144;2023-04-01T10:49:02;14.38;;;3.88;;
36651;SDS011;53334;51.976;20.144;2023-04-01T10:55:37;8.55;;;3.17;;
36651;SDS011;53334;51.976;20.144;2023-04-01T11:06:04;15.82;;;3.97;;
36651;SDS011;53334;51.976;20.144;2023-04-01T11:15:08;10.77;;;3.83;;
36651;SDS011;53334;51.976;20.144;2023-04-01T11:24:49;5.97;;;3.05;;
36651;SDS011;53334;51.976;20.144;2023-04-01T11:31:28;230.27;;;89.78;;
36651;SDS011;53334;51.976;20.144;2023-04-01T11:34:13;434.20;;;181.05;;
36651;SDS011;53334;51.976;20.144;2023-04-01T11:37:02;483.55;;;217.70;;
36651;SDS011;53334;51.976;20.144;2023-04-01T11:40:02;518.50;;;240.52;;
36651;SDS011;53334;51.976;20.144;2023-04-01T11:43:13;530.45;;;245.38;;
36651;SDS011;53334;51.976;20.144;2023-04-01T11:46:42;476.60;;;215.57;;
36651;SDS011;53334;51.976;20.144;2023-04-01T11:49:47;402.30;;;171.38;;
36651;SDS011;53334;51.976;20.144;2023-04-01T11:52:55;329.23;;;142.27;;
36651;SDS011;53334;51.976;20.144;2023-04-01T11:55:46;325.50;;;146.15;;
36651;SDS011;53334;51.976;20.144;2023-04-01T11:58:35;287.70;;;130.25;;
36651;SDS011;53334;51.976;20.144;2023-04-01T12:01:33;240.63;;;111.55;;
36651;SDS011;53334;51.976;20.144;2023-04-01T12:07:31;162.55;;;80.22;;
36651;SDS011;53334;51.976;20.144;2023-04-01T12:10:21;165.80;;;77.78;;
36651;SDS011;53334;51.976;20.144;2023-04-01T12:13:02;151.93;;;70.43;;
36651;SDS011;53334;51.976;20.144;2023-04-01T12:15:50;130.63;;;59.22;;
36651;SDS011;53334;51.976;20.144;2023-04-01T12:18:40;126.05;;;59.35;;
36651;SDS011;53334;51.976;20.144;2023-04-01T12:21:23;110.35;;;49.97;;
36651;SDS011;53334;51.976;20.144;2023-04-01T12:24:07;102.13;;;46.25;;
36651;SDS011;53334;51.976;20.144;2023-04-01T12:26:58;97.10;;;48.13;;
36651;SDS011;53334;51.976;20.144;2023-04-01T12:29:43;88.60;;;41.65;;
36651;SDS011;53334;51.976;20.144;2023-04-01T12:32:35;74.93;;;35.60;;
36651;SDS011;53334;51.976;20.144;2023-04-01T12:35:21;74.30;;;34.00;;
36651;SDS011;53334;51.976;20.144;2023-04-01T12:38:01;75.35;;;37.22;;
36651;SDS011;53334;51.976;20.144;2023-04-01T12:40:48;71.50;;;34.28;;
36651;SDS011;53334;51.976;20.144;2023-04-01T12:46:44;65.95;;;32.53;;
36651;SDS011;53334;51.976;20.144;2023-04-01T12:49:55;64.63;;;35.22;;
36651;SDS011;53334;51.976;20.144;2023-04-01T12:52:54;61.50;;;29.42;;
36651;SDS011;53334;51.976;20.144;2023-04-01T12:55:39;57.53;;;28.33;;
36651;SDS011;53334;51.976;20.144;2023-04-01T12:58:23;60.80;;;29.08;;
36651;SDS011;53334;51.976;20.144;2023-04-01T13:04:44;47.60;;;24.70;;
36651;SDS011;53334;51.976;20.144;2023-04-01T13:07:46;45.90;;;22.50;;
36651;SDS011;53334;51.976;20.144;2023-04-01T13:10:44;38.13;;;21.40;;
36651;SDS011;53334;51.976;20.144;2023-04-01T13:13:35;36.92;;;19.52;;
36651;SDS011;53334;51.976;20.144;2023-04-01T13:16:23;40.60;;;20.02;;
36651;SDS011;53334;51.976;20.144;2023-04-01T13:19:00;41.25;;;19.40;;
36651;SDS011;53334;51.976;20.144;2023-04-01T13:21:40;30.80;;;18.13;;
36651;SDS011;53334;51.976;20.144;2023-04-01T13:27:16;33.22;;;16.90;;
36651;SDS011;53334;51.976;20.144;2023-04-01T13:29:59;26.17;;;15.05;;
36651;SDS011;53334;51.976;20.144;2023-04-01T13:32:41;28.23;;;14.85;;
36651;SDS011;53334;51.976;20.144;2023-04-01T13:35:21;29.60;;;13.68;;
36651;SDS011;53334;51.976;20.144;2023-04-01T13:38:18;26.65;;;13.77;;
36651;SDS011;53334;51.976;20.144;2023-04-01T13:41:22;20.23;;;12.93;;
36651;SDS011;53334;51.976;20.144;2023-04-01T13:44:09;21.35;;;12.15;;
36651;SDS011;53334;51.976;20.144;2023-04-01T13:49:57;21.17;;;10.52;;
36651;SDS011;53334;51.976;20.144;2023-04-01T13:56:00;22.95;;;11.15;;
36651;SDS011;53334;51.976;20.144;2023-04-01T14:01:42;20.35;;;9.50;;
36651;SDS011;53334;51.976;20.144;2023-04-01T14:04:30;18.65;;;8.68;;
36651;SDS011;53334;51.976;20.144;2023-04-01T14:07:17;16.35;;;8.18;;
36651;SDS011;53334;51.976;20.144;2023-04-01T14:09:59;13.50;;;7.77;;
36651;SDS011;53334;51.976;20.144;2023-04-01T14:12:42;18.95;;;7.45;;
36651;SDS011;53334;51.976;20.144;2023-04-01T14:18:36;10.32;;;6.72;;
36651;SDS011;53334;51.976;20.144;2023-04-01T14:21:27;14.15;;;6.55;;
36651;SDS011;53334;51.976;20.144;2023-04-01T14:24:14;9.00;;;5.90;;
36651;SDS011;53334;51.976;20.144;2023-04-01T14:27:09;10.18;;;5.13;;
36651;SDS011;53334;51.976;20.144;2023-04-01T14:30:07;8.40;;;5.05;;
36651;SDS011;53334;51.976;20.144;2023-04-01T14:33:01;10.88;;;5.80;;
36651;SDS011;53334;51.976;20.144;2023-04-01T14:35:49;8.55;;;5.03;;
36651;SDS011;53334;51.976;20.144;2023-04-01T14:38:34;12.68;;;5.40;;
36651;SDS011;53334;51.976;20.144;2023-04-01T14:47:27;9.63;;;4.03;;
36651;SDS011;53334;51.976;20.144;2023-04-01T14:50:13;9.77;;;3.38;;
36651;SDS011;53334;51.976;20.144;2023-04-01T14:52:55;11.07;;;3.80;;
36651;SDS011;53334;51.976;20.144;2023-04-01T14:55:49;5.15;;;3.50;;
36651;SDS011;53334;51.976;20.144;2023-04-01T14:58:24;10.15;;;3.00;;
36651;SDS011;53334;51.976;20.144;2023-04-01T15:01:08;6.35;;;3.25;;
36651;SDS011;53334;51.976;20.144;2023-04-01T15:03:51;10.05;;;3.17;;
36651;SDS011;53334;51.976;20.144;2023-04-01T15:09:29;4.00;;;2.47;;
36651;SDS011;53334;51.976;20.144;2023-04-01T15:12:18;4.57;;;2.90;;
36651;SDS011;53334;51.976;20.144;2023-04-01T15:15:04;5.88;;;3.00;;
36651;SDS011;53334;51.976;20.144;2023-04-01T15:17:58;3.92;;;2.72;;
36651;SDS011;53334;51.976;20.144;2023-04-01T15:20:44;7.80;;;2.90;;
36651;SDS011;53334;51.976;20.144;2023-04-01T15:23:34;7.78;;;2.50;;
36651;SDS011;53334;51.976;20.144;2023-04-01T15:26:22;4.32;;;2.35;;
36651;SDS011;53334;51.976;20.144;2023-04-01T15:29:25;5.68;;;2.47;;
36651;SDS011;53334;51.976;20.144;2023-04-01T15:32:14;8.57;;;2.10;;
36651;SDS011;53334;51.976;20.144;2023-04-01T15:34:53;2.78;;;2.30;;
36651;SDS011;53334;51.976;20.144;2023-04-01T15:37:34;5.88;;;2.30;;
36651;SDS011;53334;51.976;20.144;2023-04-01T15:40:32;4.80;;;2.53;;
36651;SDS011;53334;51.976;20.144;2023-04-01T15:43:17;5.57;;;2.38;;
36651;SDS011;53334;51.976;20.144;2023-04-01T15:45:58;7.63;;;2.50;;
36651;SDS011;53334;51.976;20.144;2023-04-01T15:48:54;10.65;;;3.03;;
36651;SDS011;53334;51.976;20.144;2023-04-01T15:51:39;3.50;;;2.50;;
36651;SDS011;53334;51.976;20.144;2023-04-01T15:57:28;6.25;;;2.30;;
36651;SDS011;53334;51.976;20.144;2023-04-01T16:00:23;7.00;;;2.10;;
36651;SDS011;53334;51.976;20.144;2023-04-01T16:03:16;10.23;;;3.03;;
36651;SDS011;53334;51.976;20.144;2023-04-01T16:06:00;7.95;;;2.40;;
36651;SDS011;53334;51.976;20.144;2023-04-01T16:11:43;7.38;;;2.42;;
36651;SDS011;53334;51.976;20.144;2023-04-01T16:14:31;9.45;;;3.13;;
36651;SDS011;53334;51.976;20.144;2023-04-01T16:17:18;10.70;;;2.42;;
36651;SDS011;53334;51.976;20.144;2023-04-01T16:20:00;6.25;;;2.25;;
36651;SDS011;53334;51.976;20.144;2023-04-01T16:22:41;7.15;;;2.65;;
36651;SDS011;53334;51.976;20.144;2023-04-01T16:25:26;11.57;;;3.55;;
36651;SDS011;53334;51.976;20.144;2023-04-01T16:28:13;8.70;;;2.92;;
36651;SDS011;53334;51.976;20.144;2023-04-01T16:30:57;3.13;;;1.92;;
36651;SDS011;53334;51.976;20.144;2023-04-01T16:33:38;9.73;;;2.20;;
36651;SDS011;53334;51.976;20.144;2023-04-01T16:36:24;7.72;;;1.63;;
36651;SDS011;53334;51.976;20.144;2023-04-01T16:39:09;5.22;;;2.55;;
36651;SDS011;53334;51.976;20.144;2023-04-01T16:42:08;4.72;;;2.35;;
36651;SDS011;53334;51.976;20.144;2023-04-01T16:44:50;7.28;;;2.35;;
36651;SDS011;53334;51.976;20.144;2023-04-01T16:47:31;9.63;;;2.50;;
36651;SDS011;53334;51.976;20.144;2023-04-01T16:50:13;11.48;;;2.00;;
36651;SDS011;53334;51.976;20.144;2023-04-01T16:52:57;10.13;;;2.17;;
36651;SDS011;53334;51.976;20.144;2023-04-01T16:55:34;6.47;;;2.20;;
36651;SDS011;53334;51.976;20.144;2023-04-01T16:58:19;5.72;;;2.40;;
36651;SDS011;53334;51.976;20.144;2023-04-01T17:00:58;8.65;;;2.08;;
36651;SDS011;53334;51.976;20.144;2023-04-01T17:03:38;7.13;;;2.00;;
36651;SDS011;53334;51.976;20.144;2023-04-01T17:06:24;6.95;;;2.05;;
36651;SDS011;53334;51.976;20.144;2023-04-01T17:09:18;9.32;;;2.60;;
36651;SDS011;53334;51.976;20.144;2023-04-01T17:12:05;4.43;;;2.05;;
36651;SDS011;53334;51.976;20.144;2023-04-01T17:14:45;4.93;;;1.95;;
36651;SDS011;53334;51.976;20.144;2023-04-01T17:17:29;11.20;;;2.50;;
36651;SDS011;53334;51.976;20.144;2023-04-01T17:22:59;7.05;;;2.10;;
36651;SDS011;53334;51.976;20.144;2023-04-01T17:25:48;4.88;;;2.08;;
36651;SDS011;53334;51.976;20.144;2023-04-01T17:28:34;6.97;;;2.42;;
36651;SDS011;53334;51.976;20.144;2023-04-01T17:31:27;8.00;;;2.10;;
36651;SDS011;53334;51.976;20.144;2023-04-01T17:34:13;4.95;;;2.20;;
36651;SDS011;53334;51.976;20.144;2023-04-01T17:39:49;6.60;;;2.13;;
36651;SDS011;53334;51.976;20.144;2023-04-01T17:42:33;6.93;;;2.40;;
36651;SDS011;53334;51.976;20.144;2023-04-01T17:45:18;2.97;;;2.22;;
36651;SDS011;53334;51.976;20.144;2023-04-01T17:48:00;3.67;;;2.55;;
36651;SDS011;53334;51.976;20.144;2023-04-01T17:50:50;2.65;;;1.88;;
36651;SDS011;53334;51.976;20.144;2023-04-01T17:53:37;3.00;;;2.10;;
36651;SDS011;53334;51.976;20.144;2023-04-01T17:58:59;7.30;;;2.33;;
36651;SDS011;53334;51.976;20.144;2023-04-01T18:01:46;10.07;;;2.70;;
36651;SDS011;53334;51.976;20.144;2023-04-01T18:04:37;13.70;;;3.83;;
36651;SDS011;53334;51.976;20.144;2023-04-01T18:07:28;6.82;;;3.63;;
36651;SDS011;53334;51.976;20.144;2023-04-01T18:10:22;4.80;;;4.15;;
36651;SDS011;53334;51.976;20.144;2023-04-01T18:13:06;11.98;;;4.18;;
36651;SDS011;53334;51.976;20.144;2023-04-01T18:16:02;10.02;;;4.53;;
36651;SDS011;53334;51.976;20.144;2023-04-01T18:18:50;10.57;;;4.65;;
36651;SDS011;53334;51.976;20.144;2023-04-01T18:21:34;6.55;;;3.75;;